Language selection

Features

My Weather Profile Weather Topics  | 

North Channel: Past 24 Hour Conditions

 

Sault Ste. Marie Airport

03:00 PM EST 29 January 2020
Disclaimer

This table is a summary of hourly weather conditions for the past 24 hours.
Please note that these observations might not always be representative of weather conditions over their associated marine area.

Date / Time
(EST)
Wind(knots) Conditions Visibility(km) Pressure(kPa) Air tempC) Relative humidity(%) Dew pointC) Wind Chill
29 January 2020
15:00 ENE 8 Mostly Cloudy 32 102.6 -7 82 -10 -13
14:00 ENE 7 Light Snowshower 19 102.6 -8 84 -10 -14
13:00 E 4 Light Snowshower 24 102.7 -8 85 -10 -12
12:00 E 5 Light Snow 24 102.7 -9 85 -11 -13
11:00 ESE 4 Light Snow 19 102.7 -9 86 -11 -13
10:00 E 5 Light Snow 16 102.7 -10 88 -11 -15
9:00 E 5 Light Freezing Drizzle 16 102.6 -10 89 -11 -14
8:00 ENE 9 Light Freezing Drizzle 6 102.6 -10 89 -11 -17
7:00 ENE 5 Light Freezing Drizzle 8 102.6 -9 89 -11 -14
6:00 ENE 8 Light Freezing Drizzle 24 102.5 -9 87 -11 -16
5:00 NE 9 Light Snow 24 102.4 -9 84 -11 -16
4:00 ENE 7 Light Snow 24 102.4 -9 83 -11 -14
3:00 E 6 Light Snow 24 102.4 -8 80 -11 -13
2:00 ENE 7 Light Snow 24 102.3 -8 81 -10 -13
1:00 ENE 7 Light Snow 24 102.3 -7 81 -9 -12
0:00 NE 6 Light Snow 24 102.2 -6 81 -9 -11
28 January 2020
23:00 NNE 5 Light Snowshower 24 102.2 -6 81 -8 -10
22:00 NNW 3 Cloudy 24 102.2 -5 78 -9 -8
21:00 NNW 2 Mostly Cloudy 24 102.2 -5 75 -9 -7
20:00 NNW 2 Mostly Cloudy 24 102.1 -5 72 -9 -7
19:00 NNW 5 Cloudy 24 102.1 -5 74 -9 -9
18:00 NNW 5 Cloudy 24 102.0 -5 73 -9 -8
17:00 NW 6 Cloudy 24 101.9 -5 72 -9 -9
16:00 NW 8 Cloudy 24 101.9 -5 72 -9 -10
15:00 WNW 9 Mostly Cloudy 32 101.8 -4 70 -9 -10

Zoom-in to make a selection

Map of Great Lakes - Lake Superior marine weather areas Mid Superior - 45001 East Superior - 45004 West Superior - 45006 Slate Island - 45136 Lake Of the Woods - 45148 Kenora Airport Royal Island Armstrong Airport Caribou Island Marathon Airport Pukaskwa National Park Thunder Bay Airport Welcome Island Little Flatland Island Sault Ste. Marie Airport Wawa Airport
Legend:
buoy Buoy
land station Land Station

Great Lakes - Lake Superior Area

Another Region

What we are doing

Date modified: